createdAt,value
2022-11-23T00:01:21.537Z,98467.41
2022-11-23T00:03:50.643Z,98466.72
2022-11-23T00:06:17.859Z,98461.66
2022-11-23T00:08:44.908Z,98445.50
2022-11-23T00:11:12.328Z,98442.88
2022-11-23T00:13:40.649Z,98444.44
2022-11-23T00:19:01.134Z,98433.56
2022-11-23T00:21:30.273Z,98434.38
2022-11-23T00:23:56.844Z,98443.03
2022-11-23T00:26:23.413Z,98427.59
2022-11-23T00:28:50.025Z,98441.28
2022-11-23T00:31:18.850Z,98450.72
2022-11-23T00:33:56.197Z,98456.78
2022-11-23T00:36:24.606Z,98448.28
2022-11-23T00:38:54.270Z,98465.31
2022-11-23T00:41:23.288Z,98453.34
2022-11-23T00:43:50.086Z,98439.66
2022-11-23T00:46:17.769Z,98428.59
2022-11-23T00:48:46.586Z,98447.41
2022-11-23T00:51:16.101Z,98456.78
2022-11-23T00:53:43.414Z,98459.22
2022-11-23T00:56:10.655Z,98439.47
2022-11-23T00:58:38.846Z,98425.97
2022-11-23T01:01:09.446Z,98425.19
2022-11-23T01:03:39.062Z,98441.53
2022-11-23T01:06:13.911Z,98452.66
2022-11-23T01:08:40.954Z,98474.81
2022-11-23T01:11:10.067Z,98484.28
2022-11-23T01:13:38.470Z,98470.63
2022-11-23T01:16:07.675Z,98462.06
2022-11-23T01:18:34.517Z,98449.22
2022-11-23T01:21:02.076Z,98432.94
2022-11-23T01:23:30.335Z,98425.31
2022-11-23T01:25:57.362Z,98415.06
2022-11-23T01:28:24.441Z,98418.34
2022-11-23T01:30:50.938Z,98399.59
2022-11-23T01:33:17.399Z,98405.66
2022-11-23T01:35:43.883Z,98419.34
2022-11-23T01:38:15.142Z,98409.06
2022-11-23T01:40:44.605Z,98404.78
2022-11-23T01:43:15.824Z,98406.41
2022-11-23T01:45:53.496Z,98399.69
2022-11-23T01:48:25.188Z,98406.53
2022-11-23T01:50:53.170Z,98403.94
2022-11-23T01:53:20.997Z,98399.69
2022-11-23T01:55:48.999Z,98394.53
2022-11-23T01:58:20.897Z,98390.28
2022-11-23T02:00:47.779Z,98404.81
2022-11-23T02:03:14.295Z,98408.22
2022-11-23T02:05:45.187Z,98398.81
2022-11-23T02:08:13.488Z,98393.69
2022-11-23T02:10:39.955Z,98374.88
2022-11-23T02:13:10.112Z,98362.03
2022-11-23T02:15:37.849Z,98352.63
2022-11-23T02:18:19.478Z,98363.72
2022-11-23T02:20:46.399Z,98378.28
2022-11-23T02:23:18.591Z,98394.53
2022-11-23T02:25:45.205Z,98406.47
2022-11-23T02:28:19.596Z,98412.41
2022-11-23T02:33:33.682Z,98380.81
2022-11-23T02:36:01.380Z,98377.44
2022-11-23T02:38:33.012Z,98385.13
2022-11-23T02:40:59.636Z,98374.03
2022-11-23T02:43:26.513Z,98368.88
2022-11-23T02:45:54.771Z,98359.47
2022-11-23T02:48:21.676Z,98349.19
2022-11-23T02:50:48.173Z,98330.38
2022-11-23T02:53:15.264Z,98317.56
2022-11-23T02:55:41.786Z,98315.81
2022-11-23T02:58:08.377Z,98321.81
2022-11-23T03:00:35.832Z,98308.09
2022-11-23T03:03:03.112Z,98306.44
2022-11-23T03:05:29.822Z,98301.28
2022-11-23T03:07:56.796Z,98316.69
2022-11-23T03:10:23.308Z,98330.38
2022-11-23T03:12:49.863Z,98330.38
2022-11-23T03:15:16.395Z,98323.56
2022-11-23T03:17:42.844Z,98306.44
2022-11-23T03:20:10.614Z,98281.59
2022-11-23T03:22:37.282Z,98286.75
2022-11-23T03:25:04.114Z,98285.91
2022-11-23T03:27:33.569Z,98276.47
2022-11-23T03:30:00.222Z,98285.91
2022-11-23T03:32:26.783Z,98264.53
2022-11-23T03:34:53.256Z,98253.41
2022-11-23T03:37:19.781Z,98255.13
2022-11-23T03:39:47.744Z,98248.25
2022-11-23T03:42:14.405Z,98232.81
2022-11-23T03:44:41.024Z,98227.72
2022-11-23T03:47:07.554Z,98229.41
2022-11-23T03:49:34.234Z,98236.28
2022-11-23T03:52:00.961Z,98234.53
2022-11-23T03:54:27.571Z,98226.84
2022-11-23T03:56:54.090Z,98236.22
2022-11-23T03:59:20.584Z,98250.75
2022-11-23T04:01:47.048Z,98255.84
2022-11-23T04:04:13.667Z,98277.28
2022-11-23T04:06:40.139Z,98280.72
2022-11-23T04:09:06.746Z,98284.13
2022-11-23T04:11:33.202Z,98273.91
2022-11-23T04:13:59.684Z,98271.31
2022-11-23T04:16:26.210Z,98267.03
2022-11-23T04:18:52.699Z,98244.88
2022-11-23T04:21:20.424Z,98244.69
2022-11-23T04:23:47.019Z,98255.00
2022-11-23T04:26:13.701Z,98251.59
2022-11-23T04:28:40.211Z,98250.69
2022-11-23T04:31:06.785Z,98223.47
2022-11-23T04:33:33.317Z,98189.13
2022-11-23T04:36:00.023Z,98204.53
2022-11-23T04:38:26.558Z,98198.56
2022-11-23T04:40:53.207Z,98205.38
2022-11-23T04:43:19.813Z,98190.16
2022-11-23T04:45:46.508Z,98149.13
2022-11-23T04:48:13.017Z,98112.41
2022-11-23T04:50:42.422Z,98078.25
2022-11-23T04:53:10.341Z,98054.34
2022-11-23T04:55:37.288Z,98038.94
2022-11-23T04:58:03.790Z,98034.66
2022-11-23T05:00:30.926Z,98029.53
2022-11-23T05:03:01.172Z,98011.59
2022-11-23T05:05:28.274Z,98002.19
2022-11-23T05:07:55.304Z,98004.78
2022-11-23T05:10:21.818Z,98000.53
2022-11-23T05:12:48.369Z,97991.09
2022-11-23T05:15:15.117Z,97991.94
2022-11-23T05:17:42.632Z,97997.06
2022-11-23T05:20:10.044Z,97989.38
2022-11-23T05:22:36.776Z,97994.53
2022-11-23T05:25:03.472Z,97990.25
2022-11-23T05:27:29.937Z,97986.00
2022-11-23T05:29:56.513Z,97981.69
2022-11-23T05:32:22.994Z,97983.38
2022-11-23T05:34:50.017Z,97983.38
2022-11-23T05:37:16.834Z,97977.44
2022-11-23T05:39:43.385Z,97977.41
2022-11-23T05:42:09.914Z,97977.44
2022-11-23T05:44:36.637Z,97983.41
2022-11-23T05:47:03.224Z,97974.00
2022-11-23T05:49:30.009Z,97974.00
2022-11-23T05:51:57.197Z,97973.13
2022-11-23T05:54:23.672Z,97979.09
2022-11-23T05:56:50.230Z,97980.84
2022-11-23T05:59:16.770Z,97972.28
2022-11-23T06:01:43.294Z,97973.09
2022-11-23T06:04:09.959Z,97985.91
2022-11-23T06:06:36.510Z,97985.06
2022-11-23T06:09:03.204Z,97991.06
2022-11-23T06:11:31.261Z,97997.91
2022-11-23T06:13:58.012Z,97990.19
2022-11-23T06:16:24.613Z,98000.44
2022-11-23T06:18:51.151Z,98017.56
2022-11-23T06:21:17.666Z,98022.66
2022-11-23T06:23:46.386Z,98029.53
2022-11-23T06:26:12.906Z,98038.91
2022-11-23T06:28:39.679Z,98045.75
2022-11-23T06:31:06.969Z,98043.19
2022-11-23T06:33:34.398Z,98050.03
2022-11-23T06:36:02.892Z,98057.72
2022-11-23T06:38:29.722Z,98062.84
2022-11-23T06:41:00.130Z,98063.69
2022-11-23T06:43:27.742Z,98057.72
2022-11-23T06:45:58.007Z,98065.41
2022-11-23T06:48:24.629Z,98069.69
2022-11-23T06:50:51.689Z,98075.69
2022-11-23T06:53:18.449Z,98085.94
2022-11-23T06:55:44.953Z,98089.34
2022-11-23T06:58:11.613Z,98096.16
2022-11-23T07:00:38.121Z,98100.44
2022-11-23T07:03:04.708Z,98098.72
2022-11-23T07:05:31.367Z,98101.28
2022-11-23T07:07:57.825Z,98107.28
2022-11-23T07:10:25.794Z,98113.28
2022-11-23T07:12:52.996Z,98126.94
2022-11-23T07:15:19.521Z,98123.50
2022-11-23T07:17:46.223Z,98126.94
2022-11-23T07:20:13.397Z,98131.19
2022-11-23T07:22:40.166Z,98138.00
2022-11-23T07:25:06.990Z,98140.56
2022-11-23T07:27:33.504Z,98150.00
2022-11-23T07:30:00.032Z,98147.41
2022-11-23T07:32:26.520Z,98144.84
2022-11-23T07:34:53.191Z,98148.25
2022-11-23T07:37:19.758Z,98144.00
2022-11-23T07:39:57.348Z,98151.66
2022-11-23T07:42:35.699Z,98168.78
2022-11-23T07:45:07.425Z,98167.06
2022-11-23T07:47:33.962Z,98175.63
2022-11-23T07:50:00.503Z,98186.72
2022-11-23T07:52:27.177Z,98191.00
2022-11-23T07:54:53.774Z,98185.88
2022-11-23T07:57:20.426Z,98189.28
2022-11-23T07:59:46.926Z,98188.44
2022-11-23T08:02:15.429Z,98186.72
2022-11-23T08:04:41.983Z,98196.97
2022-11-23T08:07:08.580Z,98208.09
2022-11-23T08:09:35.170Z,98211.53
2022-11-23T08:12:01.778Z,98225.22
2022-11-23T08:14:28.381Z,98215.78
2022-11-23T08:16:55.065Z,98221.78
2022-11-23T08:19:21.611Z,98212.34
2022-11-23T08:21:48.180Z,98229.47
2022-11-23T08:24:14.716Z,98235.47
2022-11-23T08:26:41.241Z,98241.44
2022-11-23T08:29:07.875Z,98241.44
2022-11-23T08:31:34.455Z,98262.84
2022-11-23T08:34:03.603Z,98260.22
2022-11-23T08:36:30.328Z,98254.25
2022-11-23T08:38:57.402Z,98247.41
2022-11-23T08:41:23.983Z,98256.81
2022-11-23T08:43:51.381Z,98250.00
2022-11-23T08:46:17.993Z,98249.16
2022-11-23T08:48:44.476Z,98254.25
2022-11-23T08:51:11.304Z,98246.59
2022-11-23T08:53:38.076Z,98241.44
2022-11-23T08:56:06.328Z,98236.31
2022-11-23T08:58:33.258Z,98237.13
2022-11-23T09:00:59.819Z,98243.16
2022-11-23T09:03:26.357Z,98241.47
2022-11-23T09:05:54.626Z,98240.59
2022-11-23T09:08:21.287Z,98237.16
2022-11-23T09:10:47.969Z,98256.81
2022-11-23T09:13:14.541Z,98255.13
2022-11-23T09:15:41.154Z,98259.41
2022-11-23T09:18:07.744Z,98266.22
2022-11-23T09:20:34.882Z,98273.91
2022-11-23T09:23:01.364Z,98257.66
2022-11-23T09:25:28.180Z,98263.63
2022-11-23T09:28:02.228Z,98270.47
2022-11-23T09:30:29.020Z,98274.75
2022-11-23T09:32:57.826Z,98264.47
2022-11-23T09:35:25.311Z,98262.72
2022-11-23T09:37:58.677Z,98263.50
2022-11-23T09:40:31.142Z,98271.25
2022-11-23T09:43:44.089Z,98275.53
2022-11-23T09:46:54.905Z,98278.97
2022-11-23T09:49:26.186Z,98295.25
2022-11-23T09:51:55.620Z,98294.34
2022-11-23T09:54:22.752Z,98284.94
2022-11-23T09:56:58.498Z,98290.06
2022-11-23T09:59:31.830Z,98296.88
2022-11-23T10:01:59.664Z,98307.94
2022-11-23T10:04:29.328Z,98305.34
2022-11-23T10:07:03.916Z,98307.03
2022-11-23T10:10:06.032Z,98298.31
2022-11-23T10:12:50.620Z,98298.22
2022-11-23T10:15:28.105Z,98315.25
2022-11-23T10:18:29.894Z,98306.63
2022-11-23T10:21:22.923Z,98328.91
2022-11-23T10:23:54.645Z,98327.13
2022-11-23T10:26:32.721Z,98330.50
2022-11-23T10:29:10.140Z,98341.56
2022-11-23T10:31:37.243Z,98356.94
2022-11-23T10:34:16.173Z,98356.00
2022-11-23T10:36:42.903Z,98380.84
2022-11-23T10:39:38.695Z,98373.91
2022-11-23T10:42:33.868Z,98376.38
2022-11-23T10:45:01.589Z,98390.09
2022-11-23T10:47:39.327Z,98400.28
2022-11-23T10:50:27.212Z,98414.06
2022-11-23T10:53:12.584Z,98420.00
2022-11-23T10:56:08.670Z,98457.72
2022-11-23T10:58:44.749Z,98503.31
2022-11-23T11:01:23.289Z,98532.50
2022-11-23T11:03:51.814Z,98586.56
2022-11-23T11:06:28.801Z,98627.03
2022-11-23T11:09:00.441Z,98682.81
2022-11-23T11:11:39.929Z,98713.78
2022-11-23T11:14:18.553Z,98760.16
2022-11-23T11:16:49.500Z,98797.94
2022-11-23T11:19:36.554Z,98847.78
2022-11-23T11:22:27.197Z,98868.38
2022-11-23T11:24:54.791Z,98890.75
2022-11-23T11:27:23.750Z,98904.47
2022-11-23T11:30:06.857Z,98919.06
2022-11-23T11:32:54.399Z,98931.94
2022-11-23T11:35:28.962Z,98965.44
2022-11-23T11:38:11.288Z,98972.34
2022-11-23T11:40:49.604Z,98984.34
2022-11-23T11:43:39.216Z,99003.28
2022-11-23T11:46:28.980Z,99028.22
2022-11-23T11:49:21.878Z,99018.75
2022-11-23T11:52:30.000Z,99035.13
2022-11-23T11:55:01.852Z,99035.97
2022-11-23T11:57:35.266Z,99061.81
2022-11-23T12:00:05.384Z,99049.75
2022-11-23T12:02:39.963Z,99062.69
2022-11-23T12:05:31.266Z,99075.56
2022-11-23T12:08:21.522Z,99064.34
2022-11-23T12:10:47.985Z,99085.88
2022-11-23T12:13:30.443Z,99060.91
2022-11-23T12:16:24.151Z,99086.72
2022-11-23T12:19:05.869Z,99093.59
2022-11-23T12:21:55.868Z,99084.06
2022-11-23T12:24:41.609Z,99098.72
2022-11-23T12:27:16.951Z,99096.09
2022-11-23T12:30:17.645Z,99095.25
2022-11-23T12:33:02.620Z,99090.09
2022-11-23T12:35:53.301Z,99104.72
2022-11-23T12:38:20.007Z,99103.00
2022-11-23T12:40:59.905Z,99102.09
2022-11-23T12:43:49.353Z,99102.09
2022-11-23T12:46:22.098Z,99118.41
2022-11-23T12:49:14.104Z,99130.44
2022-11-23T12:52:09.636Z,99125.19
2022-11-23T12:54:53.185Z,99132.16
2022-11-23T12:57:30.232Z,99122.72
2022-11-23T13:00:03.486Z,99128.75
2022-11-23T13:02:57.384Z,99133.06
2022-11-23T13:06:01.494Z,99135.66
2022-11-23T13:08:52.969Z,99146.88
2022-11-23T13:11:31.612Z,99144.31
2022-11-23T13:14:03.946Z,99154.59
2022-11-23T13:17:04.318Z,99164.13
2022-11-23T13:19:42.243Z,99158.09
2022-11-23T13:22:17.644Z,99174.47
2022-11-23T13:25:13.755Z,99160.69
2022-11-23T13:27:49.484Z,99173.63
2022-11-23T13:30:40.384Z,99169.34
2022-11-23T13:33:21.071Z,99180.50
2022-11-23T13:36:03.580Z,99200.28
2022-11-23T13:38:39.406Z,99194.28
2022-11-23T13:41:35.194Z,99202.00
2022-11-23T13:44:26.733Z,99212.31
2022-11-23T13:46:59.533Z,99208.88
2022-11-23T13:49:29.914Z,99214.09
2022-11-23T13:52:30.282Z,99225.25
2022-11-23T13:54:56.848Z,99219.22
2022-11-23T13:57:24.222Z,99216.66
2022-11-23T13:59:51.040Z,99231.28
2022-11-23T14:02:17.860Z,99222.69
2022-11-23T14:04:49.554Z,99215.78
2022-11-23T14:07:17.861Z,99226.97
2022-11-23T14:09:51.688Z,99224.38
2022-11-23T14:12:21.256Z,99224.41
2022-11-23T14:14:55.147Z,99237.31
2022-11-23T14:17:27.426Z,99238.16
2022-11-23T14:19:59.656Z,99244.22
2022-11-23T14:22:39.411Z,99257.13
2022-11-23T14:25:37.629Z,99266.56
2022-11-23T14:28:52.844Z,99276.03
2022-11-23T14:31:37.319Z,99283.78
2022-11-23T14:34:19.163Z,99288.09
2022-11-23T14:37:11.021Z,99282.03
2022-11-23T14:40:01.893Z,99288.09
2022-11-23T14:42:30.953Z,99290.66
2022-11-23T14:45:04.859Z,99290.69
2022-11-23T14:47:32.415Z,99308.75
2022-11-23T14:49:59.143Z,99325.13
2022-11-23T14:52:32.217Z,99313.94
2022-11-23T14:55:02.036Z,99317.38
2022-11-23T14:57:44.384Z,99317.34
2022-11-23T15:00:30.028Z,99325.97
2022-11-23T15:03:27.184Z,99337.16
2022-11-23T15:05:56.381Z,99347.50
2022-11-23T15:08:44.887Z,99341.47
2022-11-23T15:11:23.897Z,99350.06
2022-11-23T15:13:52.941Z,99353.50
2022-11-23T15:16:21.462Z,99362.09
2022-11-23T15:18:48.810Z,99367.25
2022-11-23T15:21:27.248Z,99369.88
2022-11-23T15:23:57.441Z,99373.31
2022-11-23T15:26:47.315Z,99381.91
2022-11-23T15:29:33.793Z,99389.69
2022-11-23T15:34:49.415Z,99399.09
2022-11-23T15:37:17.709Z,99410.25
2022-11-23T15:39:45.869Z,99402.53
2022-11-23T15:42:20.114Z,99402.53
2022-11-23T15:44:50.944Z,99411.09
2022-11-23T15:47:27.391Z,99424.91
2022-11-23T15:50:01.396Z,99426.63
2022-11-23T15:52:33.745Z,99444.47
2022-11-23T15:55:09.671Z,99446.88
2022-11-23T15:57:37.927Z,99437.22
2022-11-23T16:00:06.679Z,99446.56
2022-11-23T16:02:33.365Z,99452.72
2022-11-23T16:05:15.352Z,99449.84
2022-11-23T16:07:57.743Z,99462.53
2022-11-23T16:10:32.163Z,99460.06
2022-11-23T16:12:59.907Z,99470.97
2022-11-23T16:15:38.678Z,99478.63
2022-11-23T16:18:05.364Z,99481.19
2022-11-23T16:20:32.824Z,99481.94
2022-11-23T16:23:00.818Z,99483.63
2022-11-23T16:25:33.350Z,99485.28
2022-11-23T16:28:27.347Z,99488.75
2022-11-23T16:30:54.319Z,99489.53
2022-11-23T16:33:21.039Z,99490.38
2022-11-23T16:35:49.226Z,99495.44
2022-11-23T16:38:16.952Z,99502.50
2022-11-23T16:40:44.653Z,99517.94
2022-11-23T16:43:12.697Z,99521.25
2022-11-23T16:45:41.575Z,99520.53
2022-11-23T16:48:28.410Z,99538.53
2022-11-23T16:50:56.776Z,99523.06
2022-11-23T16:53:26.951Z,99531.97
2022-11-23T16:55:55.238Z,99550.06
2022-11-23T16:58:22.524Z,99544.88
2022-11-23T17:00:50.170Z,99540.09
2022-11-23T17:03:20.707Z,99545.25
2022-11-23T17:05:48.376Z,99549.44
2022-11-23T17:08:21.548Z,99556.22
2022-11-23T17:10:50.913Z,99557.13
2022-11-23T17:13:26.838Z,99564.78
2022-11-23T17:15:54.327Z,99574.28
2022-11-23T17:18:22.353Z,99581.03
2022-11-23T17:20:49.134Z,99596.63
2022-11-23T17:23:15.734Z,99594.06
2022-11-23T17:25:42.375Z,99594.88
2022-11-23T17:28:16.562Z,99594.97
2022-11-23T17:30:44.040Z,99596.78
2022-11-23T17:33:12.096Z,99591.50
2022-11-23T17:35:39.379Z,99604.09
2022-11-23T17:38:12.002Z,99611.72
2022-11-23T17:40:38.549Z,99615.94
2022-11-23T17:43:05.159Z,99608.19
2022-11-23T17:45:31.697Z,99620.22
2022-11-23T17:48:02.938Z,99615.84
2022-11-23T17:50:29.938Z,99627.63
2022-11-23T17:52:56.484Z,99625.84
2022-11-23T17:55:23.033Z,99629.22
2022-11-23T17:57:49.552Z,99627.59
2022-11-23T18:00:19.093Z,99638.69
2022-11-23T18:02:46.028Z,99630.84
2022-11-23T18:05:17.834Z,99628.47
2022-11-23T18:07:48.843Z,99634.56
2022-11-23T18:10:15.880Z,99646.25
2022-11-23T18:12:44.502Z,99644.75
2022-11-23T18:15:11.902Z,99647.47
2022-11-23T18:17:38.508Z,99650.94
2022-11-23T18:20:08.089Z,99649.09
2022-11-23T18:22:34.934Z,99657.72
2022-11-23T18:25:01.838Z,99662.56
2022-11-23T18:27:29.824Z,99659.28
2022-11-23T18:29:56.467Z,99670.22
2022-11-23T18:32:23.239Z,99676.41
2022-11-23T18:34:49.803Z,99683.31
2022-11-23T18:37:16.349Z,99684.97
2022-11-23T18:39:42.863Z,99683.28
2022-11-23T18:42:09.937Z,99687.44
2022-11-23T18:44:36.445Z,99689.19
2022-11-23T18:47:03.213Z,99692.88
2022-11-23T18:49:30.129Z,99700.28
2022-11-23T18:51:56.855Z,99710.47
2022-11-23T18:54:23.461Z,99705.41
2022-11-23T18:56:50.084Z,99719.09
2022-11-23T18:59:42.087Z,99707.00
2022-11-23T19:02:03.207Z,99696.66
2022-11-23T19:04:32.435Z,99697.59
2022-11-23T19:06:58.966Z,99695.53
2022-11-23T19:09:26.002Z,99707.44
2022-11-23T19:11:52.498Z,99709.94
2022-11-23T19:14:19.007Z,99711.03
2022-11-23T19:16:45.493Z,99703.28
2022-11-23T19:19:12.746Z,99709.22
2022-11-23T19:21:39.394Z,99708.25
2022-11-23T19:24:07.162Z,99719.09
2022-11-23T19:26:33.617Z,99712.19
2022-11-23T19:29:00.201Z,99717.53
2022-11-23T19:31:29.917Z,99717.91
2022-11-23T19:34:01.872Z,99710.31
2022-11-23T19:36:30.189Z,99710.78
2022-11-23T19:38:58.221Z,99705.03
2022-11-23T19:41:29.839Z,99707.47
2022-11-23T19:43:58.396Z,99704.69
2022-11-23T19:46:25.884Z,99698.78
2022-11-23T19:48:53.718Z,99689.72
2022-11-23T19:51:20.258Z,99690.28
2022-11-23T19:53:49.170Z,99691.34
2022-11-23T19:56:19.887Z,99684.50
2022-11-23T19:58:50.294Z,99678.50
2022-11-23T20:01:18.982Z,99679.22
2022-11-23T20:03:48.000Z,99670.06
2022-11-23T20:06:19.039Z,99665.69
2022-11-23T20:08:46.102Z,99662.28
2022-11-23T20:11:15.843Z,99662.22
2022-11-23T20:13:43.097Z,99659.59
2022-11-23T20:16:14.697Z,99669.06
2022-11-23T20:18:42.907Z,99655.03
2022-11-23T20:21:14.864Z,99665.53
2022-11-23T20:23:42.669Z,99659.41
2022-11-23T20:26:14.366Z,99668.94
2022-11-23T20:28:42.180Z,99662.78
2022-11-23T20:31:20.149Z,99661.25
2022-11-23T20:33:47.328Z,99657.53
2022-11-23T20:36:21.148Z,99660.97
2022-11-23T20:38:48.877Z,99653.41
2022-11-23T20:41:21.935Z,99656.75
2022-11-23T20:43:49.459Z,99652.59
2022-11-23T20:46:31.792Z,99655.00
2022-11-23T20:49:03.224Z,99662.78
2022-11-23T20:51:30.910Z,99653.13
2022-11-23T20:53:57.457Z,99658.38
2022-11-23T20:56:27.287Z,99656.09
2022-11-23T20:58:56.364Z,99661.16
2022-11-23T21:01:23.025Z,99654.16
2022-11-23T21:03:52.080Z,99649.06
2022-11-23T21:06:19.642Z,99643.94
2022-11-23T21:08:47.590Z,99644.19
2022-11-23T21:11:35.451Z,99648.94
2022-11-23T21:14:06.566Z,99643.41
2022-11-23T21:16:40.034Z,99643.47
2022-11-23T21:19:09.177Z,99653.81
2022-11-23T21:21:37.060Z,99660.47
2022-11-23T21:24:04.745Z,99667.31
2022-11-23T21:26:32.011Z,99666.47
2022-11-23T21:28:59.630Z,99668.16
2022-11-23T21:31:26.565Z,99682.50
2022-11-23T21:33:54.182Z,99684.28
2022-11-23T21:36:25.018Z,99690.13
2022-11-23T21:38:51.873Z,99690.38
2022-11-23T21:41:18.391Z,99693.97
2022-11-23T21:43:51.416Z,99696.56
2022-11-23T21:46:18.454Z,99696.25
2022-11-23T21:48:45.095Z,99686.09
2022-11-23T21:51:13.879Z,99689.50
2022-11-23T21:53:41.940Z,99716.34
2022-11-23T21:56:16.783Z,99730.75
2022-11-23T21:58:43.876Z,99728.78
2022-11-23T22:01:19.747Z,99724.31
2022-11-23T22:03:51.607Z,99726.88
2022-11-23T22:06:20.584Z,99722.50
2022-11-23T22:08:49.674Z,99710.63
2022-11-23T22:11:35.785Z,99719.09
2022-11-23T22:14:05.112Z,99707.34
2022-11-23T22:16:34.952Z,99714.78
2022-11-23T22:19:02.683Z,99708.59
2022-11-23T22:21:33.446Z,99700.59
2022-11-23T22:24:01.340Z,99694.69
2022-11-23T22:26:28.069Z,99699.06
2022-11-23T22:28:55.896Z,99687.66
2022-11-23T22:31:24.982Z,99686.81
2022-11-23T22:33:54.568Z,99687.56
2022-11-23T22:36:23.722Z,99677.69
2022-11-23T22:39:01.584Z,99688.88
2022-11-23T22:41:29.757Z,99686.66
2022-11-23T22:43:56.908Z,99688.38
2022-11-23T22:46:24.727Z,99699.75
2022-11-23T22:48:52.160Z,99694.66
2022-11-23T22:51:21.149Z,99702.50
2022-11-23T22:53:48.534Z,99697.31
2022-11-23T22:56:19.711Z,99702.59
2022-11-23T22:58:48.030Z,99721.34
2022-11-23T23:01:16.635Z,99717.34
2022-11-23T23:03:43.533Z,99716.34
2022-11-23T23:06:30.834Z,99720.53
2022-11-23T23:08:59.061Z,99723.09
2022-11-23T23:11:27.309Z,99733.38
2022-11-23T23:13:54.543Z,99742.66
2022-11-23T23:16:21.507Z,99741.78
2022-11-23T23:18:48.504Z,99733.19
2022-11-23T23:21:17.668Z,99730.78
2022-11-23T23:23:51.051Z,99729.75
2022-11-23T23:26:19.756Z,99725.91
2022-11-23T23:28:46.615Z,99715.63
2022-11-23T23:31:16.146Z,99718.13
2022-11-23T23:33:43.777Z,99721.56
2022-11-23T23:36:12.916Z,99714.81
2022-11-23T23:38:40.294Z,99707.75
2022-11-23T23:41:08.573Z,99710.13
2022-11-23T23:43:35.788Z,99705.28
2022-11-23T23:46:05.379Z,99710.22
2022-11-23T23:48:34.762Z,99729.97
2022-11-23T23:51:08.494Z,99729.94
2022-11-23T23:53:36.234Z,99740.13
2022-11-23T23:56:05.573Z,99739.94
2022-11-23T23:58:32.181Z,99746.78
